createdAt,value
2019-05-19T00:00:36.529Z,99.13
2019-05-19T00:03:05.093Z,91.72
2019-05-19T00:05:33.654Z,82.82
2019-05-19T00:08:02.141Z,74.07
2019-05-19T00:10:30.637Z,66.25
2019-05-19T00:12:59.108Z,64.42
2019-05-19T00:15:27.616Z,61.48
2019-05-19T00:17:56.081Z,70.03
2019-05-19T00:20:24.590Z,68.35
2019-05-19T00:22:53.069Z,67.50
2019-05-19T00:25:21.592Z,69.25
2019-05-19T00:27:50.053Z,72.15
2019-05-19T00:30:18.712Z,72.00
2019-05-19T00:32:47.194Z,84.62
2019-05-19T00:35:15.782Z,91.30
2019-05-19T00:37:44.267Z,84.15
2019-05-19T00:40:13.103Z,75.13
2019-05-19T00:42:41.663Z,77.95
2019-05-19T00:45:11.621Z,76.65
2019-05-19T00:47:40.194Z,75.67
2019-05-19T00:50:09.910Z,81.42
2019-05-19T00:52:38.471Z,89.67
2019-05-19T00:55:07.297Z,117.45
2019-05-19T00:57:36.748Z,101.53
2019-05-19T01:00:07.748Z,73.60
2019-05-19T01:02:36.334Z,79.57
2019-05-19T01:05:07.927Z,69.77
2019-05-19T01:07:36.677Z,70.70
2019-05-19T01:10:07.611Z,71.97
2019-05-19T01:12:36.162Z,70.93
2019-05-19T01:15:07.078Z,62.45
2019-05-19T01:17:35.551Z,51.85
2019-05-19T01:20:08.000Z,57.98
2019-05-19T01:22:36.476Z,63.05
2019-05-19T01:25:09.396Z,57.10
2019-05-19T01:27:37.872Z,55.03
2019-05-19T01:30:11.101Z,59.58
2019-05-19T01:32:39.649Z,58.33
2019-05-19T01:35:08.276Z,57.93
2019-05-19T01:37:36.742Z,60.35
2019-05-19T01:40:08.962Z,57.78
2019-05-19T01:42:37.462Z,57.33
2019-05-19T01:45:07.478Z,51.70
2019-05-19T01:47:35.983Z,52.15
2019-05-19T01:50:22.722Z,57.73
2019-05-19T01:52:37.598Z,57.10
2019-05-19T01:55:09.342Z,58.80
2019-05-19T01:57:37.860Z,71.43
2019-05-19T02:00:08.142Z,73.22
2019-05-19T02:02:36.754Z,74.45
2019-05-19T02:05:06.803Z,79.42
2019-05-19T02:07:35.297Z,69.22
2019-05-19T02:10:07.582Z,63.50
2019-05-19T02:12:36.072Z,70.05
2019-05-19T02:15:06.548Z,68.05
2019-05-19T02:17:35.051Z,62.13
2019-05-19T02:20:05.265Z,55.55
2019-05-19T02:22:34.857Z,54.80
2019-05-19T02:25:03.708Z,53.05
2019-05-19T02:27:32.315Z,59.73
2019-05-19T02:30:00.765Z,55.98
2019-05-19T02:32:29.257Z,55.20
2019-05-19T02:34:57.778Z,55.73
2019-05-19T02:37:26.255Z,54.93
2019-05-19T02:39:54.732Z,50.20
2019-05-19T02:42:25.174Z,47.80
2019-05-19T02:44:56.202Z,47.98
2019-05-19T02:47:26.158Z,59.80
2019-05-19T02:49:57.070Z,73.45
2019-05-19T02:52:26.990Z,81.23
2019-05-19T02:54:56.416Z,77.37
2019-05-19T02:57:44.371Z,77.20
2019-05-19T03:00:14.091Z,75.15
2019-05-19T03:02:42.577Z,70.70
2019-05-19T03:05:11.244Z,63.87
2019-05-19T03:07:39.720Z,60.23
2019-05-19T03:10:09.537Z,58.38
2019-05-19T03:12:38.028Z,66.35
2019-05-19T03:15:06.933Z,64.32
2019-05-19T03:17:35.414Z,70.28
2019-05-19T03:20:05.245Z,62.38
2019-05-19T03:22:33.712Z,66.82
2019-05-19T03:25:02.209Z,64.03
2019-05-19T03:27:30.685Z,62.03
2019-05-19T03:30:00.817Z,59.23
2019-05-19T03:32:36.913Z,57.75
2019-05-19T03:35:05.973Z,55.98
2019-05-19T03:37:34.468Z,56.85
2019-05-19T03:40:04.655Z,52.35
2019-05-19T03:42:33.165Z,49.33
2019-05-19T03:45:01.639Z,59.73
2019-05-19T03:47:30.117Z,57.35
2019-05-19T03:49:58.633Z,56.85
2019-05-19T03:52:27.164Z,58.17
2019-05-19T03:54:55.628Z,61.35
2019-05-19T03:57:24.096Z,61.92
2019-05-19T03:59:52.602Z,49.53
2019-05-19T04:02:21.115Z,43.42
2019-05-19T04:04:49.576Z,49.18
2019-05-19T04:07:18.081Z,45.88
2019-05-19T04:09:46.558Z,41.88
2019-05-19T04:12:15.119Z,40.87
2019-05-19T04:14:43.609Z,43.17
2019-05-19T04:17:12.103Z,40.73
2019-05-19T04:19:40.582Z,40.30
2019-05-19T04:22:09.060Z,40.44
2019-05-19T04:24:40.628Z,34.15
2019-05-19T04:27:09.140Z,32.94
2019-05-19T04:29:39.566Z,31.12
2019-05-19T04:32:07.865Z,32.40
2019-05-19T04:34:36.306Z,29.12
2019-05-19T04:37:04.989Z,31.17
2019-05-19T04:39:33.459Z,31.60
2019-05-19T04:42:01.923Z,32.20
2019-05-19T04:44:30.412Z,31.97
2019-05-19T04:46:58.951Z,29.65
2019-05-19T04:49:27.442Z,30.82
2019-05-19T04:52:05.869Z,31.95
2019-05-19T04:54:26.141Z,28.73
2019-05-19T04:56:54.690Z,29.32
2019-05-19T04:59:23.193Z,28.60
2019-05-19T05:01:51.676Z,29.02
2019-05-19T05:04:20.231Z,28.85
2019-05-19T05:06:48.706Z,26.95
2019-05-19T05:09:17.206Z,29.82
2019-05-19T05:11:45.674Z,31.73
2019-05-19T05:14:14.166Z,28.62
2019-05-19T05:16:42.640Z,26.27
2019-05-19T05:19:11.144Z,26.50
2019-05-19T05:21:39.673Z,27.55
2019-05-19T05:24:08.111Z,31.75
2019-05-19T05:26:36.626Z,29.02
2019-05-19T05:29:05.126Z,28.10
2019-05-19T05:31:33.631Z,27.85
2019-05-19T05:34:02.100Z,26.40
2019-05-19T05:36:30.631Z,26.55
2019-05-19T05:38:59.109Z,26.68
2019-05-19T05:41:27.620Z,26.73
2019-05-19T05:43:56.103Z,23.53
2019-05-19T05:46:24.606Z,23.65
2019-05-19T05:48:53.225Z,23.70
2019-05-19T05:51:21.705Z,22.93
2019-05-19T05:53:50.198Z,23.00
2019-05-19T05:56:18.671Z,23.60
2019-05-19T05:58:47.167Z,23.52
2019-05-19T06:01:15.643Z,24.40
2019-05-19T06:03:44.156Z,27.05
2019-05-19T06:06:12.640Z,24.35
2019-05-19T06:08:41.129Z,33.15
2019-05-19T06:11:09.665Z,24.43
2019-05-19T06:13:38.171Z,23.52
2019-05-19T06:16:06.647Z,33.35
2019-05-19T06:18:35.143Z,28.53
2019-05-19T06:21:03.624Z,26.37
2019-05-19T06:23:32.105Z,30.25
2019-05-19T06:26:00.602Z,30.85
2019-05-19T06:28:29.089Z,30.60
2019-05-19T06:30:57.569Z,33.08
2019-05-19T06:33:26.059Z,33.48
2019-05-19T06:35:54.540Z,33.85
2019-05-19T06:38:23.043Z,32.60
2019-05-19T06:40:51.527Z,29.95
2019-05-19T06:43:19.999Z,37.20
2019-05-19T06:45:48.472Z,35.30
2019-05-19T06:48:16.977Z,46.60
2019-05-19T06:50:45.447Z,29.42
2019-05-19T06:53:14.841Z,28.42
2019-05-19T06:55:43.805Z,35.58
2019-05-19T06:58:12.305Z,33.63
2019-05-19T07:00:40.934Z,35.95
2019-05-19T07:03:09.456Z,30.06
2019-05-19T07:05:37.940Z,24.83
2019-05-19T07:08:06.444Z,34.65
2019-05-19T07:10:34.947Z,25.12
2019-05-19T07:13:03.461Z,24.18
2019-05-19T07:15:32.014Z,23.95
2019-05-19T07:18:00.505Z,28.67
2019-05-19T07:20:28.975Z,28.75
2019-05-19T07:22:57.506Z,21.50
2019-05-19T07:25:25.979Z,24.47
2019-05-19T07:27:55.029Z,19.55
2019-05-19T07:30:23.514Z,24.02
2019-05-19T07:32:51.987Z,17.10
2019-05-19T07:35:20.481Z,15.20
2019-05-19T07:37:48.962Z,21.10
2019-05-19T07:40:17.569Z,20.12
2019-05-19T07:42:46.054Z,18.98
2019-05-19T07:45:14.864Z,15.40
2019-05-19T07:47:43.361Z,18.40
2019-05-19T07:50:12.005Z,18.90
2019-05-19T07:52:40.508Z,20.55
2019-05-19T07:55:09.129Z,20.82
2019-05-19T07:57:37.690Z,16.75
2019-05-19T08:00:26.959Z,15.65
2019-05-19T08:02:55.481Z,13.75
2019-05-19T08:05:23.945Z,14.80
2019-05-19T08:07:52.452Z,23.38
2019-05-19T08:10:20.927Z,16.77
2019-05-19T08:12:49.431Z,12.55
2019-05-19T08:15:18.248Z,19.73
2019-05-19T08:17:46.757Z,13.65
2019-05-19T08:20:15.478Z,20.35
2019-05-19T08:22:43.963Z,13.73
2019-05-19T08:25:12.783Z,14.28
2019-05-19T08:27:41.290Z,12.40
2019-05-19T08:30:11.016Z,13.65
2019-05-19T08:32:39.576Z,17.65
2019-05-19T08:35:08.514Z,8.23
2019-05-19T08:37:36.983Z,10.32
2019-05-19T08:40:05.834Z,9.63
2019-05-19T08:42:34.393Z,9.68
2019-05-19T08:45:03.272Z,9.13
2019-05-19T08:47:31.732Z,8.70
2019-05-19T08:50:00.241Z,8.48
2019-05-19T08:52:28.706Z,7.83
2019-05-19T08:54:57.192Z,7.80
2019-05-19T08:57:25.701Z,8.63
2019-05-19T08:59:54.165Z,9.08
2019-05-19T09:02:22.650Z,8.60
2019-05-19T09:04:51.120Z,9.88
2019-05-19T09:07:19.670Z,8.75
2019-05-19T09:09:48.179Z,8.38
2019-05-19T09:12:16.704Z,7.35
2019-05-19T09:14:45.207Z,7.25
2019-05-19T09:17:14.301Z,10.08
2019-05-19T09:19:42.756Z,7.72
2019-05-19T09:22:12.341Z,6.97
2019-05-19T09:24:40.829Z,6.10
2019-05-19T09:27:09.399Z,6.62
2019-05-19T09:29:37.893Z,5.97
2019-05-19T09:32:06.434Z,6.08
2019-05-19T09:34:34.986Z,5.70
2019-05-19T09:37:03.518Z,15.00
2019-05-19T09:39:31.997Z,5.90
2019-05-19T09:42:00.463Z,4.85
2019-05-19T09:44:28.987Z,4.78
2019-05-19T09:47:00.356Z,5.58
2019-05-19T09:49:35.545Z,5.50
2019-05-19T09:52:06.144Z,5.35
2019-05-19T09:54:44.724Z,5.70
2019-05-19T09:57:04.970Z,4.87
2019-05-19T09:59:33.506Z,4.62
2019-05-19T10:02:01.976Z,5.10
2019-05-19T10:04:30.548Z,4.90
2019-05-19T10:06:59.149Z,4.37
2019-05-19T10:09:40.017Z,4.60
2019-05-19T10:12:09.551Z,5.20
2019-05-19T10:14:38.180Z,5.43
2019-05-19T10:17:06.675Z,5.30
2019-05-19T10:19:35.219Z,5.08
2019-05-19T10:22:03.857Z,4.75
2019-05-19T10:24:32.433Z,5.10
2019-05-19T10:27:00.889Z,4.67
2019-05-19T10:29:29.387Z,5.15
2019-05-19T10:31:57.861Z,6.25
2019-05-19T10:34:26.424Z,4.60
2019-05-19T10:36:54.900Z,4.50
2019-05-19T10:39:23.370Z,4.42
2019-05-19T10:41:51.866Z,4.25
2019-05-19T10:44:20.401Z,4.60
2019-05-19T10:46:49.005Z,5.00
2019-05-19T10:49:17.537Z,4.37
2019-05-19T10:51:46.035Z,4.97
2019-05-19T10:54:14.509Z,5.00
2019-05-19T10:56:42.983Z,4.22
2019-05-19T10:59:13.761Z,4.87
2019-05-19T11:01:42.228Z,4.77
2019-05-19T11:04:10.741Z,4.37
2019-05-19T11:06:39.223Z,4.37
2019-05-19T11:09:08.969Z,4.70
2019-05-19T11:11:37.505Z,4.10
2019-05-19T11:14:06.161Z,4.20
2019-05-19T11:16:34.682Z,6.50
2019-05-19T11:19:03.182Z,4.20
2019-05-19T11:21:31.673Z,4.28
2019-05-19T11:24:00.153Z,4.20
2019-05-19T11:26:28.644Z,3.60
2019-05-19T11:28:57.192Z,3.75
2019-05-19T11:31:25.705Z,4.22
2019-05-19T11:33:55.274Z,4.90
2019-05-19T11:36:23.760Z,8.03
2019-05-19T11:38:52.231Z,4.85
2019-05-19T11:41:20.739Z,3.70
2019-05-19T11:43:49.220Z,4.30
2019-05-19T11:46:17.687Z,4.47
2019-05-19T11:48:46.183Z,4.97
2019-05-19T11:51:14.665Z,5.07
2019-05-19T11:53:43.134Z,4.17
2019-05-19T11:56:11.838Z,6.50
2019-05-19T11:58:40.359Z,3.67
2019-05-19T12:01:08.912Z,3.86
2019-05-19T12:03:37.373Z,4.20
2019-05-19T12:06:05.873Z,3.75
2019-05-19T12:08:34.344Z,4.22
2019-05-19T12:11:02.868Z,3.92
2019-05-19T12:13:34.964Z,6.85
2019-05-19T12:16:02.608Z,3.98
2019-05-19T12:18:38.191Z,11.53
2019-05-19T12:21:06.686Z,4.15
2019-05-19T12:23:35.226Z,3.67
2019-05-19T12:26:04.695Z,3.05
2019-05-19T12:28:33.166Z,3.25
2019-05-19T12:31:01.660Z,4.42
2019-05-19T12:33:30.120Z,3.60
2019-05-19T12:35:58.624Z,3.45
2019-05-19T12:38:27.123Z,5.97
2019-05-19T12:40:55.612Z,4.55
2019-05-19T12:43:24.090Z,4.37
2019-05-19T12:45:52.681Z,3.62
2019-05-19T12:48:21.248Z,7.67
2019-05-19T12:50:49.825Z,5.58
2019-05-19T12:53:18.488Z,34.53
2019-05-19T12:55:47.030Z,4.87
2019-05-19T12:58:15.635Z,3.65
2019-05-19T13:00:44.192Z,8.98
2019-05-19T13:03:14.167Z,5.73
2019-05-19T13:05:42.651Z,4.08
2019-05-19T13:08:11.729Z,13.05
2019-05-19T13:10:40.252Z,9.20
2019-05-19T13:13:08.747Z,13.68
2019-05-19T13:15:37.243Z,12.88
2019-05-19T13:18:05.726Z,13.08
2019-05-19T13:20:34.299Z,8.33
2019-05-19T13:23:02.795Z,7.87
2019-05-19T13:25:31.265Z,9.88
2019-05-19T13:27:59.755Z,6.83
2019-05-19T13:30:28.233Z,6.80
2019-05-19T13:32:56.720Z,5.72
2019-05-19T13:35:25.197Z,4.97
2019-05-19T13:37:53.745Z,4.08
2019-05-19T13:40:22.213Z,4.55
2019-05-19T13:42:50.742Z,3.98
2019-05-19T13:45:19.832Z,4.20
2019-05-19T13:47:48.298Z,4.40
2019-05-19T13:50:17.357Z,4.58
2019-05-19T13:52:45.820Z,5.15
2019-05-19T13:55:14.409Z,5.65
2019-05-19T13:57:42.877Z,6.03
2019-05-19T14:00:12.318Z,6.22
2019-05-19T14:02:40.833Z,6.10
2019-05-19T14:05:09.454Z,6.20
2019-05-19T14:07:37.996Z,8.03
2019-05-19T14:10:08.042Z,8.75
2019-05-19T14:12:36.624Z,14.35
2019-05-19T14:15:06.540Z,10.72
2019-05-19T14:17:36.141Z,9.13
2019-05-19T14:20:09.538Z,11.12
2019-05-19T14:22:38.307Z,10.10
2019-05-19T14:25:07.634Z,9.28
2019-05-19T14:27:36.100Z,7.28
2019-05-19T14:30:06.546Z,9.43
2019-05-19T14:32:35.015Z,8.83
2019-05-19T14:35:04.197Z,10.72
2019-05-19T14:37:32.692Z,10.10
2019-05-19T14:40:01.181Z,9.60
2019-05-19T14:42:47.742Z,9.78
2019-05-19T14:45:17.746Z,9.85
2019-05-19T14:47:46.268Z,10.98
2019-05-19T14:50:15.283Z,11.73
2019-05-19T14:52:43.756Z,11.03
2019-05-19T14:55:12.598Z,9.88
2019-05-19T14:57:44.852Z,7.78
2019-05-19T15:00:12.512Z,8.28
2019-05-19T15:02:41.018Z,8.88
2019-05-19T15:05:10.046Z,8.78
2019-05-19T15:07:38.522Z,8.43
2019-05-19T15:10:07.178Z,8.70
2019-05-19T15:12:35.736Z,6.10
2019-05-19T15:15:06.833Z,6.83
2019-05-19T15:17:35.303Z,7.60
2019-05-19T15:20:07.516Z,7.45
2019-05-19T15:22:35.996Z,8.15
2019-05-19T15:25:05.459Z,7.53
2019-05-19T15:27:34.001Z,6.83
2019-05-19T15:30:12.216Z,6.87
2019-05-19T15:32:32.736Z,5.90
2019-05-19T15:35:01.405Z,7.72
2019-05-19T15:37:29.908Z,11.27
2019-05-19T15:39:59.558Z,7.35
2019-05-19T15:42:39.813Z,11.03
2019-05-19T15:45:08.966Z,9.70
2019-05-19T15:47:39.117Z,11.60
2019-05-19T15:50:08.181Z,8.20
2019-05-19T15:52:36.726Z,9.67
2019-05-19T15:55:06.645Z,8.98
2019-05-19T15:57:35.410Z,7.37
2019-05-19T16:00:07.455Z,6.83
2019-05-19T16:02:36.150Z,10.40
2019-05-19T16:05:06.696Z,12.10
2019-05-19T16:07:35.252Z,44.60
2019-05-19T16:10:06.176Z,68.37
2019-05-19T16:12:34.646Z,62.77
2019-05-19T16:15:03.795Z,24.37
2019-05-19T16:17:32.294Z,12.70
2019-05-19T16:20:00.782Z,13.40
2019-05-19T16:22:29.299Z,14.18
2019-05-19T16:24:57.830Z,13.45
2019-05-19T16:27:26.390Z,14.20
2019-05-19T16:29:54.892Z,9.63
2019-05-19T16:32:23.370Z,11.30
2019-05-19T16:34:51.881Z,10.03
2019-05-19T16:37:20.358Z,19.48
2019-05-19T16:39:48.878Z,32.42
2019-05-19T16:42:17.365Z,19.32
2019-05-19T16:44:45.878Z,14.75
2019-05-19T16:47:14.383Z,10.98
2019-05-19T16:49:42.862Z,33.73
2019-05-19T16:52:11.374Z,17.77
2019-05-19T16:54:42.733Z,18.70
2019-05-19T16:57:12.292Z,11.35
2019-05-19T16:59:40.770Z,10.18
2019-05-19T17:02:09.283Z,20.60
2019-05-19T17:04:37.832Z,32.23
2019-05-19T17:07:06.298Z,10.40
2019-05-19T17:09:34.775Z,19.95
2019-05-19T17:12:03.280Z,27.98
2019-05-19T17:14:33.394Z,21.00
2019-05-19T17:17:01.897Z,26.87
2019-05-19T17:19:30.384Z,12.40
2019-05-19T17:21:58.924Z,16.25
2019-05-19T17:24:27.395Z,12.95
2019-05-19T17:26:55.867Z,9.40
2019-05-19T17:29:24.362Z,7.12
2019-05-19T17:32:05.316Z,7.05
2019-05-19T17:34:23.069Z,7.60
2019-05-19T17:36:51.539Z,8.75
2019-05-19T17:39:20.020Z,8.33
2019-05-19T17:41:48.495Z,8.65
2019-05-19T17:44:17.075Z,16.02
2019-05-19T17:46:45.570Z,18.30
2019-05-19T17:49:14.080Z,25.10
2019-05-19T17:51:42.560Z,33.90
2019-05-19T17:54:11.051Z,12.80
2019-05-19T17:56:41.169Z,20.75
2019-05-19T17:59:16.672Z,11.14
2019-05-19T18:01:39.878Z,9.48
2019-05-19T18:04:08.383Z,8.73
2019-05-19T18:06:36.870Z,8.75
2019-05-19T18:09:06.019Z,10.45
2019-05-19T18:11:34.538Z,10.85
2019-05-19T18:14:03.047Z,11.88
2019-05-19T18:16:31.531Z,14.40
2019-05-19T18:19:00.010Z,19.42
2019-05-19T18:21:28.528Z,29.25
2019-05-19T18:23:57.030Z,29.87
2019-05-19T18:26:25.492Z,32.93
2019-05-19T18:28:53.966Z,20.07
2019-05-19T18:31:22.540Z,58.08
2019-05-19T18:33:53.101Z,41.95
2019-05-19T18:36:21.583Z,17.90
2019-05-19T18:38:50.095Z,38.78
2019-05-19T18:41:18.671Z,19.93
2019-05-19T18:43:47.170Z,15.70
2019-05-19T18:46:15.688Z,17.90
2019-05-19T18:48:44.172Z,24.95
2019-05-19T18:51:12.677Z,24.83
2019-05-19T18:53:41.157Z,23.42
2019-05-19T18:56:09.738Z,19.36
2019-05-19T18:58:38.241Z,20.80
2019-05-19T19:01:06.823Z,17.75
2019-05-19T19:03:35.372Z,24.40
2019-05-19T19:06:04.840Z,26.80
2019-05-19T19:08:33.332Z,22.60
2019-05-19T19:11:01.808Z,37.75
2019-05-19T19:13:30.319Z,21.35
2019-05-19T19:15:58.862Z,27.27
2019-05-19T19:18:27.343Z,26.17
2019-05-19T19:20:55.836Z,25.20
2019-05-19T19:23:25.568Z,36.68
2019-05-19T19:25:56.783Z,42.60
2019-05-19T19:30:58.719Z,30.45
2019-05-19T19:33:30.202Z,30.25
2019-05-19T19:36:02.438Z,32.17
2019-05-19T19:38:40.126Z,28.70
2019-05-19T19:41:08.706Z,24.87
2019-05-19T19:43:39.993Z,24.18
2019-05-19T19:46:10.638Z,23.05
2019-05-19T19:48:39.171Z,23.60
2019-05-19T19:51:07.718Z,25.05
2019-05-19T19:53:36.301Z,27.98
2019-05-19T19:56:05.288Z,32.98
2019-05-19T19:58:33.847Z,27.95
2019-05-19T20:01:02.345Z,28.83
2019-05-19T20:03:30.918Z,29.87
2019-05-19T20:06:02.236Z,42.65
2019-05-19T20:08:33.713Z,37.17
2019-05-19T20:13:30.273Z,29.77
2019-05-19T20:15:58.758Z,32.38
2019-05-19T20:18:29.164Z,32.48
2019-05-19T20:20:57.667Z,32.63
2019-05-19T20:23:26.143Z,33.90
2019-05-19T20:25:54.617Z,48.85
2019-05-19T20:28:23.113Z,33.83
2019-05-19T20:30:51.619Z,21.95
2019-05-19T20:33:20.159Z,19.67
2019-05-19T20:35:48.662Z,18.23
2019-05-19T20:38:17.226Z,18.40
2019-05-19T20:40:45.723Z,18.67
2019-05-19T20:43:14.199Z,18.02
2019-05-19T20:45:43.094Z,16.65
2019-05-19T20:48:16.141Z,17.73
2019-05-19T20:50:44.662Z,16.85
2019-05-19T20:53:15.723Z,16.37
2019-05-19T20:55:44.222Z,17.00
2019-05-19T20:58:14.241Z,21.87
2019-05-19T21:00:50.376Z,18.50
2019-05-19T21:03:14.476Z,20.95
2019-05-19T21:05:42.979Z,21.65
2019-05-19T21:08:11.468Z,30.82
2019-05-19T21:10:39.945Z,42.93
2019-05-19T21:13:08.452Z,43.68
2019-05-19T21:15:36.972Z,27.77
2019-05-19T21:18:05.513Z,24.52
2019-05-19T21:20:37.033Z,23.55
2019-05-19T21:23:05.816Z,22.22
2019-05-19T21:25:34.887Z,25.12
2019-05-19T21:28:03.395Z,22.82
2019-05-19T21:30:31.949Z,27.10
2019-05-19T21:33:00.453Z,26.55
2019-05-19T21:35:28.934Z,23.57
2019-05-19T21:37:57.452Z,24.25
2019-05-19T21:40:25.925Z,50.12
2019-05-19T21:42:54.471Z,54.30
2019-05-19T21:45:23.031Z,32.63
2019-05-19T21:47:51.514Z,34.30
2019-05-19T21:50:20.093Z,31.70
2019-05-19T21:52:48.600Z,32.17
2019-05-19T21:55:17.197Z,37.83
2019-05-19T21:57:45.755Z,33.30
2019-05-19T22:00:15.074Z,34.18
2019-05-19T22:02:43.579Z,27.05
2019-05-19T22:05:12.319Z,27.57
2019-05-19T22:07:57.489Z,29.85
2019-05-19T22:10:26.092Z,23.22
2019-05-19T22:12:54.575Z,26.70
2019-05-19T22:15:23.062Z,38.92
2019-05-19T22:17:51.627Z,47.88
2019-05-19T22:20:20.207Z,32.30
2019-05-19T22:22:49.622Z,28.90
2019-05-19T22:25:18.110Z,26.40
2019-05-19T22:27:46.599Z,20.02
2019-05-19T22:30:15.500Z,17.50
2019-05-19T22:32:43.983Z,16.93
2019-05-19T22:35:15.236Z,15.90
2019-05-19T22:37:43.738Z,17.05
2019-05-19T22:40:12.612Z,17.45
2019-05-19T22:42:41.183Z,19.67
2019-05-19T22:45:10.506Z,19.28
2019-05-19T22:47:39.029Z,19.75
2019-05-19T22:50:08.575Z,19.00
2019-05-19T22:52:37.058Z,20.70
2019-05-19T22:55:09.299Z,20.00
2019-05-19T22:57:37.772Z,18.15
2019-05-19T23:00:11.228Z,19.65
2019-05-19T23:02:39.743Z,17.43
2019-05-19T23:05:09.699Z,20.30
2019-05-19T23:07:38.213Z,17.85
2019-05-19T23:10:07.712Z,19.55
2019-05-19T23:12:36.314Z,19.35
2019-05-19T23:15:09.324Z,19.00
2019-05-19T23:17:37.797Z,18.02
2019-05-19T23:20:06.518Z,18.12
2019-05-19T23:22:35.006Z,19.00
2019-05-19T23:25:04.375Z,20.02
2019-05-19T23:27:32.849Z,18.52
2019-05-19T23:30:01.364Z,20.72
2019-05-19T23:32:29.830Z,22.22
2019-05-19T23:34:58.332Z,22.35
2019-05-19T23:37:26.810Z,22.67
2019-05-19T23:39:55.346Z,20.85
2019-05-19T23:42:23.802Z,23.80
2019-05-19T23:44:52.273Z,22.87
2019-05-19T23:47:20.776Z,24.63
2019-05-19T23:49:49.252Z,26.68
2019-05-19T23:52:17.760Z,26.20
2019-05-19T23:54:46.237Z,23.73
2019-05-19T23:57:14.743Z,24.07
2019-05-19T23:59:43.214Z,23.73
